sensor_id;sensor_type;location;lat;lon;timestamp;P1;durP1;ratioP1;P2;durP2;ratioP2
21798;SDS011;24973;47.178;15.316;2023-07-13T00:00:41;1.10;;;0.80;;
21798;SDS011;24973;47.178;15.316;2023-07-13T00:03:31;1.73;;;0.93;;
21798;SDS011;24973;47.178;15.316;2023-07-13T00:06:23;2.47;;;0.90;;
21798;SDS011;24973;47.178;15.316;2023-07-13T00:09:12;1.07;;;0.80;;
21798;SDS011;24973;47.178;15.316;2023-07-13T00:12:02;2.07;;;1.10;;
21798;SDS011;24973;47.178;15.316;2023-07-13T00:14:53;2.30;;;1.00;;
21798;SDS011;24973;47.178;15.316;2023-07-13T00:17:43;0.70;;;0.70;;
21798;SDS011;24973;47.178;15.316;2023-07-13T00:20:32;0.97;;;0.93;;
21798;SDS011;24973;47.178;15.316;2023-07-13T00:23:23;1.20;;;0.80;;
21798;SDS011;24973;47.178;15.316;2023-07-13T00:26:13;2.57;;;0.73;;
21798;SDS011;24973;47.178;15.316;2023-07-13T00:29:02;1.00;;;0.90;;
21798;SDS011;24973;47.178;15.316;2023-07-13T00:31:52;1.37;;;0.83;;
21798;SDS011;24973;47.178;15.316;2023-07-13T00:34:42;1.33;;;1.10;;
21798;SDS011;24973;47.178;15.316;2023-07-13T00:37:31;1.47;;;1.27;;
21798;SDS011;24973;47.178;15.316;2023-07-13T00:40:23;2.20;;;1.10;;
21798;SDS011;24973;47.178;15.316;2023-07-13T00:43:13;1.17;;;1.00;;
21798;SDS011;24973;47.178;15.316;2023-07-13T00:49:16;2.80;;;1.50;;
21798;SDS011;24973;47.178;15.316;2023-07-13T00:52:08;2.60;;;0.97;;
21798;SDS011;24973;47.178;15.316;2023-07-13T00:54:58;1.13;;;1.00;;
21798;SDS011;24973;47.178;15.316;2023-07-13T00:57:48;1.40;;;1.00;;
21798;SDS011;24973;47.178;15.316;2023-07-13T01:00:38;5.80;;;1.10;;
21798;SDS011;24973;47.178;15.316;2023-07-13T01:03:27;2.53;;;1.00;;
21798;SDS011;24973;47.178;15.316;2023-07-13T01:06:16;1.30;;;0.90;;
21798;SDS011;24973;47.178;15.316;2023-07-13T01:09:06;1.53;;;1.23;;
21798;SDS011;24973;47.178;15.316;2023-07-13T01:11:57;4.67;;;1.93;;
21798;SDS011;24973;47.178;15.316;2023-07-13T01:14:48;1.60;;;1.33;;
21798;SDS011;24973;47.178;15.316;2023-07-13T01:17:44;5.23;;;1.30;;
21798;SDS011;24973;47.178;15.316;2023-07-13T01:20:33;2.50;;;1.27;;
21798;SDS011;24973;47.178;15.316;2023-07-13T01:23:24;1.90;;;1.80;;
21798;SDS011;24973;47.178;15.316;2023-07-13T01:26:14;6.73;;;2.40;;
21798;SDS011;24973;47.178;15.316;2023-07-13T01:29:03;2.27;;;2.07;;
21798;SDS011;24973;47.178;15.316;2023-07-13T01:31:54;4.43;;;1.90;;
21798;SDS011;24973;47.178;15.316;2023-07-13T01:34:43;3.30;;;2.03;;
21798;SDS011;24973;47.178;15.316;2023-07-13T01:37:33;3.37;;;1.57;;
21798;SDS011;24973;47.178;15.316;2023-07-13T01:40:24;2.80;;;2.17;;
21798;SDS011;24973;47.178;15.316;2023-07-13T01:43:13;7.50;;;2.00;;
21798;SDS011;24973;47.178;15.316;2023-07-13T01:46:02;8.63;;;2.70;;
21798;SDS011;24973;47.178;15.316;2023-07-13T01:49:02;3.70;;;2.30;;
21798;SDS011;24973;47.178;15.316;2023-07-13T01:51:51;2.27;;;1.73;;
21798;SDS011;24973;47.178;15.316;2023-07-13T01:54:40;4.30;;;1.83;;
21798;SDS011;24973;47.178;15.316;2023-07-13T01:57:31;3.87;;;2.00;;
21798;SDS011;24973;47.178;15.316;2023-07-13T02:00:20;4.30;;;2.50;;
21798;SDS011;24973;47.178;15.316;2023-07-13T02:03:09;4.13;;;2.73;;
21798;SDS011;24973;47.178;15.316;2023-07-13T02:05:58;4.80;;;1.87;;
21798;SDS011;24973;47.178;15.316;2023-07-13T02:08:47;3.67;;;1.73;;
21798;SDS011;24973;47.178;15.316;2023-07-13T02:11:36;3.93;;;1.80;;
21798;SDS011;24973;47.178;15.316;2023-07-13T02:14:26;2.90;;;2.33;;
21798;SDS011;24973;47.178;15.316;2023-07-13T02:17:15;2.67;;;1.93;;
21798;SDS011;24973;47.178;15.316;2023-07-13T02:20:05;12.40;;;6.20;;
21798;SDS011;24973;47.178;15.316;2023-07-13T02:22:56;5.67;;;2.40;;
21798;SDS011;24973;47.178;15.316;2023-07-13T02:25:45;7.03;;;2.97;;
21798;SDS011;24973;47.178;15.316;2023-07-13T02:28:34;5.13;;;2.47;;
21798;SDS011;24973;47.178;15.316;2023-07-13T02:31:24;8.10;;;3.53;;
21798;SDS011;24973;47.178;15.316;2023-07-13T02:34:14;3.90;;;2.60;;
21798;SDS011;24973;47.178;15.316;2023-07-13T02:37:04;2.97;;;2.63;;
21798;SDS011;24973;47.178;15.316;2023-07-13T02:39:53;4.80;;;2.20;;
21798;SDS011;24973;47.178;15.316;2023-07-13T02:42:42;4.27;;;2.13;;
21798;SDS011;24973;47.178;15.316;2023-07-13T02:45:31;2.70;;;2.20;;
21798;SDS011;24973;47.178;15.316;2023-07-13T02:48:22;3.67;;;2.10;;
21798;SDS011;24973;47.178;15.316;2023-07-13T02:51:11;4.17;;;2.07;;
21798;SDS011;24973;47.178;15.316;2023-07-13T02:54:00;6.70;;;2.13;;
21798;SDS011;24973;47.178;15.316;2023-07-13T02:56:49;2.60;;;1.77;;
21798;SDS011;24973;47.178;15.316;2023-07-13T02:59:38;2.87;;;2.10;;
21798;SDS011;24973;47.178;15.316;2023-07-13T03:02:28;3.53;;;1.87;;
21798;SDS011;24973;47.178;15.316;2023-07-13T03:05:19;3.97;;;1.90;;
21798;SDS011;24973;47.178;15.316;2023-07-13T03:08:08;2.60;;;2.13;;
21798;SDS011;24973;47.178;15.316;2023-07-13T03:11:00;4.13;;;2.17;;
21798;SDS011;24973;47.178;15.316;2023-07-13T03:13:49;3.23;;;2.03;;
21798;SDS011;24973;47.178;15.316;2023-07-13T03:16:39;5.70;;;2.43;;
21798;SDS011;24973;47.178;15.316;2023-07-13T03:19:28;5.07;;;2.23;;
21798;SDS011;24973;47.178;15.316;2023-07-13T03:22:19;2.13;;;1.97;;
21798;SDS011;24973;47.178;15.316;2023-07-13T03:25:09;4.83;;;2.50;;
21798;SDS011;24973;47.178;15.316;2023-07-13T03:27:58;5.93;;;2.10;;
21798;SDS011;24973;47.178;15.316;2023-07-13T03:30:47;4.63;;;2.27;;
21798;SDS011;24973;47.178;15.316;2023-07-13T03:33:36;2.10;;;1.80;;
21798;SDS011;24973;47.178;15.316;2023-07-13T03:36:28;4.50;;;2.30;;
21798;SDS011;24973;47.178;15.316;2023-07-13T03:39:20;6.40;;;2.17;;
21798;SDS011;24973;47.178;15.316;2023-07-13T03:42:09;3.60;;;1.93;;
21798;SDS011;24973;47.178;15.316;2023-07-13T03:44:58;2.03;;;1.83;;
21798;SDS011;24973;47.178;15.316;2023-07-13T03:47:48;3.67;;;2.30;;
21798;SDS011;24973;47.178;15.316;2023-07-13T03:50:37;3.80;;;2.30;;
21798;SDS011;24973;47.178;15.316;2023-07-13T03:53:26;5.27;;;1.80;;
21798;SDS011;24973;47.178;15.316;2023-07-13T03:56:16;3.37;;;1.87;;
21798;SDS011;24973;47.178;15.316;2023-07-13T03:59:06;3.40;;;2.10;;
21798;SDS011;24973;47.178;15.316;2023-07-13T04:01:55;2.70;;;2.20;;
21798;SDS011;24973;47.178;15.316;2023-07-13T04:04:44;9.30;;;2.00;;
21798;SDS011;24973;47.178;15.316;2023-07-13T04:07:33;2.27;;;2.00;;
21798;SDS011;24973;47.178;15.316;2023-07-13T04:10:22;1.90;;;1.80;;
21798;SDS011;24973;47.178;15.316;2023-07-13T04:13:12;1.87;;;1.70;;
21798;SDS011;24973;47.178;15.316;2023-07-13T04:16:02;3.17;;;1.80;;
21798;SDS011;24973;47.178;15.316;2023-07-13T04:18:51;3.30;;;1.60;;
21798;SDS011;24973;47.178;15.316;2023-07-13T04:21:46;3.93;;;2.33;;
21798;SDS011;24973;47.178;15.316;2023-07-13T04:24:35;4.13;;;2.93;;
21798;SDS011;24973;47.178;15.316;2023-07-13T04:27:24;2.20;;;1.50;;
21798;SDS011;24973;47.178;15.316;2023-07-13T04:30:16;7.60;;;3.43;;
21798;SDS011;24973;47.178;15.316;2023-07-13T04:33:05;3.70;;;1.57;;
21798;SDS011;24973;47.178;15.316;2023-07-13T04:35:55;1.77;;;1.33;;
21798;SDS011;24973;47.178;15.316;2023-07-13T04:38:45;2.27;;;1.93;;
21798;SDS011;24973;47.178;15.316;2023-07-13T04:41:35;1.80;;;1.63;;
21798;SDS011;24973;47.178;15.316;2023-07-13T04:44:24;3.13;;;2.77;;
21798;SDS011;24973;47.178;15.316;2023-07-13T04:47:14;2.37;;;1.80;;
21798;SDS011;24973;47.178;15.316;2023-07-13T04:50:04;2.07;;;1.83;;
21798;SDS011;24973;47.178;15.316;2023-07-13T04:52:53;4.83;;;2.37;;
21798;SDS011;24973;47.178;15.316;2023-07-13T04:55:42;2.57;;;1.80;;
21798;SDS011;24973;47.178;15.316;2023-07-13T04:58:32;2.13;;;1.77;;
21798;SDS011;24973;47.178;15.316;2023-07-13T05:01:21;3.57;;;1.80;;
21798;SDS011;24973;47.178;15.316;2023-07-13T05:04:13;1.80;;;1.17;;
21798;SDS011;24973;47.178;15.316;2023-07-13T05:07:02;2.47;;;1.80;;
21798;SDS011;24973;47.178;15.316;2023-07-13T05:09:52;6.93;;;2.00;;
21798;SDS011;24973;47.178;15.316;2023-07-13T05:12:41;1.83;;;1.73;;
21798;SDS011;24973;47.178;15.316;2023-07-13T05:15:30;1.83;;;1.53;;
21798;SDS011;24973;47.178;15.316;2023-07-13T05:18:20;5.93;;;1.77;;
21798;SDS011;24973;47.178;15.316;2023-07-13T05:21:11;1.85;;;1.65;;
21798;SDS011;24973;47.178;15.316;2023-07-13T05:24:00;3.90;;;1.50;;
21798;SDS011;24973;47.178;15.316;2023-07-13T05:26:53;2.13;;;1.80;;
21798;SDS011;24973;47.178;15.316;2023-07-13T05:29:42;1.50;;;1.40;;
21798;SDS011;24973;47.178;15.316;2023-07-13T05:32:32;4.37;;;1.70;;
21798;SDS011;24973;47.178;15.316;2023-07-13T05:35:21;2.67;;;1.60;;
21798;SDS011;24973;47.178;15.316;2023-07-13T05:38:12;2.70;;;2.17;;
21798;SDS011;24973;47.178;15.316;2023-07-13T05:41:02;2.00;;;1.90;;
21798;SDS011;24973;47.178;15.316;2023-07-13T05:43:53;3.07;;;1.77;;
21798;SDS011;24973;47.178;15.316;2023-07-13T05:46:43;3.13;;;1.60;;
21798;SDS011;24973;47.178;15.316;2023-07-13T05:49:32;3.67;;;1.53;;
21798;SDS011;24973;47.178;15.316;2023-07-13T05:52:21;1.60;;;1.50;;
21798;SDS011;24973;47.178;15.316;2023-07-13T05:55:12;1.87;;;1.63;;
21798;SDS011;24973;47.178;15.316;2023-07-13T05:58:01;2.63;;;1.60;;
21798;SDS011;24973;47.178;15.316;2023-07-13T06:00:57;2.87;;;1.70;;
21798;SDS011;24973;47.178;15.316;2023-07-13T06:03:48;2.87;;;1.67;;
21798;SDS011;24973;47.178;15.316;2023-07-13T06:06:37;2.40;;;1.43;;
21798;SDS011;24973;47.178;15.316;2023-07-13T06:09:26;1.57;;;1.47;;
21798;SDS011;24973;47.178;15.316;2023-07-13T06:12:17;1.33;;;1.23;;
21798;SDS011;24973;47.178;15.316;2023-07-13T06:15:06;2.40;;;2.07;;
21798;SDS011;24973;47.178;15.316;2023-07-13T06:17:56;1.97;;;1.63;;
21798;SDS011;24973;47.178;15.316;2023-07-13T06:20:45;1.10;;;1.00;;
21798;SDS011;24973;47.178;15.316;2023-07-13T06:23:35;2.30;;;1.87;;
21798;SDS011;24973;47.178;15.316;2023-07-13T06:26:24;2.43;;;1.93;;
21798;SDS011;24973;47.178;15.316;2023-07-13T06:29:16;5.00;;;1.33;;
21798;SDS011;24973;47.178;15.316;2023-07-13T06:32:05;3.00;;;1.40;;
21798;SDS011;24973;47.178;15.316;2023-07-13T06:34:55;2.20;;;1.47;;
21798;SDS011;24973;47.178;15.316;2023-07-13T06:37:45;1.90;;;1.27;;
21798;SDS011;24973;47.178;15.316;2023-07-13T06:40:34;1.50;;;1.40;;
21798;SDS011;24973;47.178;15.316;2023-07-13T06:43:23;4.20;;;1.80;;
21798;SDS011;24973;47.178;15.316;2023-07-13T06:46:14;1.57;;;1.27;;
21798;SDS011;24973;47.178;15.316;2023-07-13T06:49:03;2.97;;;1.47;;
21798;SDS011;24973;47.178;15.316;2023-07-13T06:51:52;1.23;;;1.13;;
21798;SDS011;24973;47.178;15.316;2023-07-13T06:54:41;1.37;;;1.27;;
21798;SDS011;24973;47.178;15.316;2023-07-13T06:57:30;2.00;;;1.20;;
21798;SDS011;24973;47.178;15.316;2023-07-13T07:00:19;3.20;;;1.40;;
21798;SDS011;24973;47.178;15.316;2023-07-13T07:03:10;3.50;;;1.57;;
21798;SDS011;24973;47.178;15.316;2023-07-13T07:06:00;2.73;;;1.50;;
21798;SDS011;24973;47.178;15.316;2023-07-13T07:08:49;2.73;;;1.17;;
21798;SDS011;24973;47.178;15.316;2023-07-13T07:11:39;3.00;;;1.60;;
21798;SDS011;24973;47.178;15.316;2023-07-13T07:14:32;1.53;;;1.30;;
21798;SDS011;24973;47.178;15.316;2023-07-13T07:17:21;1.70;;;1.60;;
21798;SDS011;24973;47.178;15.316;2023-07-13T07:20:13;2.37;;;1.40;;
21798;SDS011;24973;47.178;15.316;2023-07-13T07:23:02;2.07;;;1.83;;
21798;SDS011;24973;47.178;15.316;2023-07-13T07:25:51;3.07;;;1.47;;
21798;SDS011;24973;47.178;15.316;2023-07-13T07:28:40;1.43;;;1.33;;
21798;SDS011;24973;47.178;15.316;2023-07-13T07:31:31;3.77;;;1.33;;
21798;SDS011;24973;47.178;15.316;2023-07-13T07:34:24;2.00;;;1.70;;
21798;SDS011;24973;47.178;15.316;2023-07-13T07:37:14;2.17;;;1.63;;
21798;SDS011;24973;47.178;15.316;2023-07-13T07:40:07;2.47;;;1.30;;
21798;SDS011;24973;47.178;15.316;2023-07-13T07:42:59;3.00;;;1.40;;
21798;SDS011;24973;47.178;15.316;2023-07-13T07:45:48;2.03;;;1.40;;
21798;SDS011;24973;47.178;15.316;2023-07-13T07:48:37;2.03;;;1.50;;
21798;SDS011;24973;47.178;15.316;2023-07-13T07:51:26;2.17;;;1.70;;
21798;SDS011;24973;47.178;15.316;2023-07-13T07:54:17;6.00;;;1.20;;
21798;SDS011;24973;47.178;15.316;2023-07-13T07:57:09;2.57;;;1.33;;
21798;SDS011;24973;47.178;15.316;2023-07-13T08:00:01;1.37;;;1.27;;
21798;SDS011;24973;47.178;15.316;2023-07-13T08:02:53;4.40;;;1.83;;
21798;SDS011;24973;47.178;15.316;2023-07-13T08:06:02;1.43;;;1.17;;
21798;SDS011;24973;47.178;15.316;2023-07-13T08:08:54;1.53;;;1.20;;
21798;SDS011;24973;47.178;15.316;2023-07-13T08:11:45;0.97;;;0.90;;
21798;SDS011;24973;47.178;15.316;2023-07-13T08:14:37;1.90;;;1.30;;
21798;SDS011;24973;47.178;15.316;2023-07-13T08:17:37;2.33;;;1.80;;
21798;SDS011;24973;47.178;15.316;2023-07-13T08:20:26;2.40;;;1.30;;
21798;SDS011;24973;47.178;15.316;2023-07-13T08:23:15;1.40;;;1.17;;
21798;SDS011;24973;47.178;15.316;2023-07-13T08:26:04;1.07;;;1.03;;
21798;SDS011;24973;47.178;15.316;2023-07-13T08:28:55;1.17;;;1.07;;
21798;SDS011;24973;47.178;15.316;2023-07-13T08:31:44;1.13;;;0.97;;
21798;SDS011;24973;47.178;15.316;2023-07-13T08:34:33;1.13;;;0.97;;
21798;SDS011;24973;47.178;15.316;2023-07-13T08:37:22;1.03;;;0.90;;
21798;SDS011;24973;47.178;15.316;2023-07-13T08:40:11;1.10;;;1.00;;
21798;SDS011;24973;47.178;15.316;2023-07-13T08:43:01;3.07;;;1.10;;
21798;SDS011;24973;47.178;15.316;2023-07-13T08:45:52;1.40;;;1.00;;
21798;SDS011;24973;47.178;15.316;2023-07-13T08:48:46;2.00;;;1.40;;
21798;SDS011;24973;47.178;15.316;2023-07-13T08:51:39;1.77;;;1.10;;
21798;SDS011;24973;47.178;15.316;2023-07-13T08:54:34;1.60;;;1.20;;
21798;SDS011;24973;47.178;15.316;2023-07-13T08:57:26;1.00;;;0.90;;
21798;SDS011;24973;47.178;15.316;2023-07-13T09:00:17;1.53;;;1.43;;
21798;SDS011;24973;47.178;15.316;2023-07-13T09:03:10;1.67;;;1.30;;
21798;SDS011;24973;47.178;15.316;2023-07-13T09:06:07;3.83;;;1.17;;
21798;SDS011;24973;47.178;15.316;2023-07-13T09:09:00;3.57;;;1.10;;
21798;SDS011;24973;47.178;15.316;2023-07-13T09:11:53;2.73;;;1.00;;
21798;SDS011;24973;47.178;15.316;2023-07-13T09:14:47;1.17;;;0.90;;
21798;SDS011;24973;47.178;15.316;2023-07-13T09:17:40;1.47;;;0.80;;
21798;SDS011;24973;47.178;15.316;2023-07-13T09:20:34;1.40;;;0.90;;
21798;SDS011;24973;47.178;15.316;2023-07-13T09:23:27;1.50;;;1.00;;
21798;SDS011;24973;47.178;15.316;2023-07-13T09:26:17;2.70;;;0.93;;
21798;SDS011;24973;47.178;15.316;2023-07-13T09:29:10;1.70;;;1.60;;
21798;SDS011;24973;47.178;15.316;2023-07-13T09:32:04;1.80;;;1.33;;
21798;SDS011;24973;47.178;15.316;2023-07-13T09:34:55;1.27;;;0.90;;
21798;SDS011;24973;47.178;15.316;2023-07-13T09:37:46;1.27;;;0.77;;
21798;SDS011;24973;47.178;15.316;2023-07-13T09:40:37;0.97;;;0.83;;
21798;SDS011;24973;47.178;15.316;2023-07-13T09:43:31;1.60;;;1.13;;
21798;SDS011;24973;47.178;15.316;2023-07-13T09:46:20;2.97;;;1.10;;
21798;SDS011;24973;47.178;15.316;2023-07-13T09:49:10;1.70;;;1.10;;
21798;SDS011;24973;47.178;15.316;2023-07-13T09:52:03;1.57;;;0.93;;
21798;SDS011;24973;47.178;15.316;2023-07-13T09:54:55;2.83;;;1.60;;
21798;SDS011;24973;47.178;15.316;2023-07-13T09:57:46;1.13;;;1.02;;
21798;SDS011;24973;47.178;15.316;2023-07-13T10:00:36;2.28;;;0.82;;
21798;SDS011;24973;47.178;15.316;2023-07-13T10:03:27;2.80;;;1.42;;
21798;SDS011;24973;47.178;15.316;2023-07-13T10:06:20;1.10;;;1.00;;
21798;SDS011;24973;47.178;15.316;2023-07-13T10:09:10;2.53;;;1.00;;
21798;SDS011;24973;47.178;15.316;2023-07-13T10:12:03;2.33;;;1.10;;
21798;SDS011;24973;47.178;15.316;2023-07-13T10:15:01;2.60;;;1.00;;
21798;SDS011;24973;47.178;15.316;2023-07-13T10:18:03;1.15;;;1.00;;
21798;SDS011;24973;47.178;15.316;2023-07-13T10:20:53;1.48;;;0.90;;
21798;SDS011;24973;47.178;15.316;2023-07-13T10:23:54;1.40;;;0.80;;
21798;SDS011;24973;47.178;15.316;2023-07-13T10:26:46;0.70;;;0.70;;
21798;SDS011;24973;47.178;15.316;2023-07-13T10:29:42;1.83;;;1.15;;
21798;SDS011;24973;47.178;15.316;2023-07-13T10:32:34;3.13;;;1.40;;
21798;SDS011;24973;47.178;15.316;2023-07-13T10:35:23;3.25;;;0.95;;
21798;SDS011;24973;47.178;15.316;2023-07-13T10:38:13;2.33;;;1.00;;
21798;SDS011;24973;47.178;15.316;2023-07-13T10:41:06;1.08;;;0.90;;
21798;SDS011;24973;47.178;15.316;2023-07-13T10:43:58;1.40;;;1.10;;
21798;SDS011;24973;47.178;15.316;2023-07-13T10:46:49;1.17;;;1.10;;
21798;SDS011;24973;47.178;15.316;2023-07-13T10:49:39;1.02;;;0.90;;
21798;SDS011;24973;47.178;15.316;2023-07-13T10:52:40;1.55;;;0.93;;
21798;SDS011;24973;47.178;15.316;2023-07-13T10:55:34;2.15;;;1.10;;
21798;SDS011;24973;47.178;15.316;2023-07-13T10:58:31;0.95;;;0.90;;
21798;SDS011;24973;47.178;15.316;2023-07-13T11:01:21;2.95;;;1.20;;
21798;SDS011;24973;47.178;15.316;2023-07-13T11:04:13;1.00;;;0.90;;
21798;SDS011;24973;47.178;15.316;2023-07-13T11:07:10;1.30;;;1.20;;
21798;SDS011;24973;47.178;15.316;2023-07-13T11:10:09;2.30;;;1.33;;
21798;SDS011;24973;47.178;15.316;2023-07-13T11:13:36;1.73;;;1.10;;
21798;SDS011;24973;47.178;15.316;2023-07-13T11:16:45;3.45;;;1.38;;
21798;SDS011;24973;47.178;15.316;2023-07-13T11:19:39;2.70;;;1.20;;
21798;SDS011;24973;47.178;15.316;2023-07-13T11:22:41;1.63;;;1.30;;
21798;SDS011;24973;47.178;15.316;2023-07-13T11:25:31;1.08;;;1.00;;
21798;SDS011;24973;47.178;15.316;2023-07-13T11:28:23;1.27;;;0.98;;
21798;SDS011;24973;47.178;15.316;2023-07-13T11:31:13;1.40;;;1.02;;
21798;SDS011;24973;47.178;15.316;2023-07-13T11:34:06;2.42;;;1.50;;
21798;SDS011;24973;47.178;15.316;2023-07-13T11:37:03;1.27;;;1.15;;
21798;SDS011;24973;47.178;15.316;2023-07-13T11:39:56;1.30;;;1.20;;
21798;SDS011;24973;47.178;15.316;2023-07-13T11:42:46;2.33;;;1.23;;
21798;SDS011;24973;47.178;15.316;2023-07-13T11:45:35;0.93;;;0.93;;
21798;SDS011;24973;47.178;15.316;2023-07-13T11:48:33;1.40;;;1.30;;
21798;SDS011;24973;47.178;15.316;2023-07-13T11:51:25;1.55;;;1.42;;
21798;SDS011;24973;47.178;15.316;2023-07-13T11:54:22;1.13;;;1.00;;
21798;SDS011;24973;47.178;15.316;2023-07-13T11:57:17;2.63;;;1.48;;
21798;SDS011;24973;47.178;15.316;2023-07-13T12:00:16;1.92;;;1.73;;
21798;SDS011;24973;47.178;15.316;2023-07-13T12:03:07;4.07;;;1.67;;
21798;SDS011;24973;47.178;15.316;2023-07-13T12:05:59;2.85;;;1.27;;
21798;SDS011;24973;47.178;15.316;2023-07-13T12:08:49;3.63;;;1.20;;
21798;SDS011;24973;47.178;15.316;2023-07-13T12:11:41;3.47;;;1.33;;
21798;SDS011;24973;47.178;15.316;2023-07-13T12:14:33;2.17;;;1.37;;
21798;SDS011;24973;47.178;15.316;2023-07-13T12:17:23;1.20;;;1.10;;
21798;SDS011;24973;47.178;15.316;2023-07-13T12:20:17;5.53;;;1.20;;
21798;SDS011;24973;47.178;15.316;2023-07-13T12:23:13;2.83;;;1.20;;
21798;SDS011;24973;47.178;15.316;2023-07-13T12:26:09;2.23;;;2.03;;
21798;SDS011;24973;47.178;15.316;2023-07-13T12:29:01;2.00;;;1.43;;
21798;SDS011;24973;47.178;15.316;2023-07-13T12:31:52;4.63;;;1.23;;
21798;SDS011;24973;47.178;15.316;2023-07-13T12:34:50;8.03;;;1.50;;
21798;SDS011;24973;47.178;15.316;2023-07-13T12:37:41;2.07;;;1.50;;
21798;SDS011;24973;47.178;15.316;2023-07-13T12:40:32;1.43;;;1.07;;
21798;SDS011;24973;47.178;15.316;2023-07-13T12:43:23;2.90;;;1.73;;
21798;SDS011;24973;47.178;15.316;2023-07-13T12:46:17;6.97;;;2.53;;
21798;SDS011;24973;47.178;15.316;2023-07-13T12:49:08;2.37;;;1.40;;
21798;SDS011;24973;47.178;15.316;2023-07-13T12:52:09;3.93;;;1.87;;
21798;SDS011;24973;47.178;15.316;2023-07-13T12:55:05;2.33;;;1.80;;
21798;SDS011;24973;47.178;15.316;2023-07-13T12:58:03;2.20;;;1.93;;
21798;SDS011;24973;47.178;15.316;2023-07-13T13:00:53;1.93;;;1.73;;
21798;SDS011;24973;47.178;15.316;2023-07-13T13:03:46;4.97;;;2.43;;
21798;SDS011;24973;47.178;15.316;2023-07-13T13:06:38;7.17;;;2.17;;
21798;SDS011;24973;47.178;15.316;2023-07-13T13:09:28;5.33;;;2.43;;
21798;SDS011;24973;47.178;15.316;2023-07-13T13:12:18;5.50;;;2.17;;
21798;SDS011;24973;47.178;15.316;2023-07-13T13:15:07;3.67;;;2.33;;
21798;SDS011;24973;47.178;15.316;2023-07-13T13:17:58;6.60;;;2.33;;
21798;SDS011;24973;47.178;15.316;2023-07-13T13:20:49;3.07;;;2.13;;
21798;SDS011;24973;47.178;15.316;2023-07-13T13:23:39;5.50;;;2.23;;
21798;SDS011;24973;47.178;15.316;2023-07-13T13:26:28;9.40;;;2.77;;
21798;SDS011;24973;47.178;15.316;2023-07-13T13:29:18;6.07;;;2.80;;
21798;SDS011;24973;47.178;15.316;2023-07-13T13:32:09;6.60;;;3.17;;
21798;SDS011;24973;47.178;15.316;2023-07-13T13:34:59;4.73;;;2.43;;
21798;SDS011;24973;47.178;15.316;2023-07-13T13:37:49;7.40;;;3.00;;
21798;SDS011;24973;47.178;15.316;2023-07-13T13:40:39;5.23;;;2.63;;
21798;SDS011;24973;47.178;15.316;2023-07-13T13:43:29;4.63;;;2.73;;
21798;SDS011;24973;47.178;15.316;2023-07-13T13:46:19;4.57;;;2.47;;
21798;SDS011;24973;47.178;15.316;2023-07-13T13:49:12;2.83;;;2.00;;
21798;SDS011;24973;47.178;15.316;2023-07-13T13:52:04;3.10;;;1.80;;
21798;SDS011;24973;47.178;15.316;2023-07-13T13:54:57;3.30;;;1.97;;
21798;SDS011;24973;47.178;15.316;2023-07-13T13:57:47;1.77;;;1.53;;
21798;SDS011;24973;47.178;15.316;2023-07-13T14:00:36;4.17;;;2.27;;
21798;SDS011;24973;47.178;15.316;2023-07-13T14:03:27;4.87;;;2.17;;
21798;SDS011;24973;47.178;15.316;2023-07-13T14:06:16;2.43;;;1.73;;
21798;SDS011;24973;47.178;15.316;2023-07-13T14:09:08;2.80;;;1.70;;
21798;SDS011;24973;47.178;15.316;2023-07-13T14:11:59;2.00;;;1.43;;
21798;SDS011;24973;47.178;15.316;2023-07-13T14:14:48;2.77;;;1.80;;
21798;SDS011;24973;47.178;15.316;2023-07-13T14:17:37;3.63;;;2.27;;
21798;SDS011;24973;47.178;15.316;2023-07-13T14:20:29;5.67;;;2.00;;
21798;SDS011;24973;47.178;15.316;2023-07-13T14:23:18;4.03;;;1.77;;
21798;SDS011;24973;47.178;15.316;2023-07-13T14:26:09;2.60;;;1.83;;
21798;SDS011;24973;47.178;15.316;2023-07-13T14:29:01;4.80;;;3.33;;
21798;SDS011;24973;47.178;15.316;2023-07-13T14:31:52;5.00;;;1.93;;
21798;SDS011;24973;47.178;15.316;2023-07-13T14:34:41;3.00;;;1.80;;
21798;SDS011;24973;47.178;15.316;2023-07-13T14:37:30;2.50;;;1.90;;
21798;SDS011;24973;47.178;15.316;2023-07-13T14:40:21;4.63;;;2.20;;
21798;SDS011;24973;47.178;15.316;2023-07-13T14:43:13;3.53;;;2.27;;
21798;SDS011;24973;47.178;15.316;2023-07-13T14:46:04;2.07;;;1.90;;
21798;SDS011;24973;47.178;15.316;2023-07-13T14:48:59;2.57;;;1.93;;
21798;SDS011;24973;47.178;15.316;2023-07-13T14:51:51;2.97;;;2.20;;
21798;SDS011;24973;47.178;15.316;2023-07-13T14:54:40;4.73;;;2.57;;
21798;SDS011;24973;47.178;15.316;2023-07-13T14:57:30;3.40;;;2.00;;
21798;SDS011;24973;47.178;15.316;2023-07-13T15:00:20;3.37;;;2.20;;
21798;SDS011;24973;47.178;15.316;2023-07-13T15:03:14;6.57;;;2.10;;
21798;SDS011;24973;47.178;15.316;2023-07-13T15:06:07;3.13;;;2.10;;
21798;SDS011;24973;47.178;15.316;2023-07-13T15:08:57;3.07;;;1.73;;
21798;SDS011;24973;47.178;15.316;2023-07-13T15:11:47;3.07;;;2.37;;
21798;SDS011;24973;47.178;15.316;2023-07-13T15:14:36;3.70;;;2.10;;
21798;SDS011;24973;47.178;15.316;2023-07-13T15:17:28;5.23;;;2.50;;
21798;SDS011;24973;47.178;15.316;2023-07-13T15:20:24;2.67;;;2.30;;
21798;SDS011;24973;47.178;15.316;2023-07-13T15:23:16;2.87;;;2.27;;
21798;SDS011;24973;47.178;15.316;2023-07-13T15:26:07;2.37;;;2.17;;
21798;SDS011;24973;47.178;15.316;2023-07-13T15:28:58;2.60;;;2.40;;
21798;SDS011;24973;47.178;15.316;2023-07-13T15:31:47;4.47;;;1.83;;
21798;SDS011;24973;47.178;15.316;2023-07-13T15:34:37;4.00;;;2.00;;
21798;SDS011;24973;47.178;15.316;2023-07-13T15:37:27;3.60;;;1.83;;
21798;SDS011;24973;47.178;15.316;2023-07-13T15:40:17;2.10;;;1.80;;
21798;SDS011;24973;47.178;15.316;2023-07-13T15:43:09;3.53;;;2.57;;
21798;SDS011;24973;47.178;15.316;2023-07-13T15:45:59;4.27;;;2.57;;
21798;SDS011;24973;47.178;15.316;2023-07-13T15:48:48;3.37;;;2.20;;
21798;SDS011;24973;47.178;15.316;2023-07-13T15:51:37;3.83;;;2.50;;
21798;SDS011;24973;47.178;15.316;2023-07-13T15:54:28;3.30;;;2.03;;
21798;SDS011;24973;47.178;15.316;2023-07-13T15:57:18;2.30;;;2.03;;
21798;SDS011;24973;47.178;15.316;2023-07-13T16:00:18;3.97;;;2.27;;
21798;SDS011;24973;47.178;15.316;2023-07-13T16:03:09;3.17;;;2.37;;
21798;SDS011;24973;47.178;15.316;2023-07-13T16:05:58;2.47;;;2.13;;
21798;SDS011;24973;47.178;15.316;2023-07-13T16:08:47;3.97;;;2.70;;
21798;SDS011;24973;47.178;15.316;2023-07-13T16:11:38;3.73;;;2.43;;
21798;SDS011;24973;47.178;15.316;2023-07-13T16:14:28;2.93;;;2.03;;
21798;SDS011;24973;47.178;15.316;2023-07-13T16:17:17;4.93;;;2.73;;
21798;SDS011;24973;47.178;15.316;2023-07-13T16:20:07;4.17;;;2.30;;
21798;SDS011;24973;47.178;15.316;2023-07-13T16:22:58;2.50;;;2.30;;
21798;SDS011;24973;47.178;15.316;2023-07-13T16:25:50;2.80;;;2.33;;
21798;SDS011;24973;47.178;15.316;2023-07-13T16:28:41;2.63;;;2.43;;
21798;SDS011;24973;47.178;15.316;2023-07-13T16:31:31;3.60;;;2.37;;
21798;SDS011;24973;47.178;15.316;2023-07-13T16:34:21;3.20;;;2.10;;
21798;SDS011;24973;47.178;15.316;2023-07-13T16:37:13;2.23;;;1.90;;
21798;SDS011;24973;47.178;15.316;2023-07-13T16:40:05;5.67;;;3.13;;
21798;SDS011;24973;47.178;15.316;2023-07-13T16:43:08;4.43;;;2.50;;
21798;SDS011;24973;47.178;15.316;2023-07-13T16:46:01;4.40;;;2.90;;
21798;SDS011;24973;47.178;15.316;2023-07-13T16:48:52;3.27;;;2.67;;
21798;SDS011;24973;47.178;15.316;2023-07-13T16:51:41;3.37;;;2.37;;
21798;SDS011;24973;47.178;15.316;2023-07-13T16:54:31;3.13;;;2.60;;
21798;SDS011;24973;47.178;15.316;2023-07-13T16:57:21;4.53;;;2.73;;